createdAt,value
2022-11-18T00:01:40.722Z,63.70
2022-11-18T00:04:10.627Z,63.60
2022-11-18T00:06:39.184Z,63.60
2022-11-18T00:09:07.810Z,63.70
2022-11-18T00:11:53.914Z,63.60
2022-11-18T00:14:27.509Z,63.60
2022-11-18T00:17:01.083Z,63.70
2022-11-18T00:19:34.360Z,63.70
2022-11-18T00:22:03.381Z,63.70
2022-11-18T00:24:32.287Z,63.60
2022-11-18T00:27:00.973Z,63.70
2022-11-18T00:29:30.950Z,63.70
2022-11-18T00:31:59.973Z,63.60
2022-11-18T00:34:29.993Z,63.70
2022-11-18T00:36:58.599Z,63.70
2022-11-18T00:39:27.263Z,63.60
2022-11-18T00:42:13.322Z,63.50
2022-11-18T00:44:41.923Z,63.60
2022-11-18T00:47:10.594Z,63.60
2022-11-18T00:49:40.519Z,63.60
2022-11-18T00:52:09.226Z,63.60
2022-11-18T00:54:37.763Z,63.60
2022-11-18T00:57:06.459Z,63.60
2022-11-18T00:59:35.238Z,63.50
2022-11-18T01:02:03.825Z,63.50
2022-11-18T01:04:32.620Z,63.50
2022-11-18T01:07:02.705Z,63.60
2022-11-18T01:09:31.407Z,63.60
2022-11-18T01:12:17.355Z,63.60
2022-11-18T01:14:46.302Z,63.50
2022-11-18T01:17:14.882Z,63.60
2022-11-18T01:19:43.476Z,63.60
2022-11-18T01:22:13.512Z,63.60
2022-11-18T01:24:42.057Z,63.50
2022-11-18T01:27:10.624Z,63.60
2022-11-18T01:29:39.244Z,63.60
2022-11-18T01:32:25.015Z,63.60
2022-11-18T01:34:54.218Z,63.80
2022-11-18T01:37:24.142Z,63.60
2022-11-18T01:39:52.671Z,63.60
2022-11-18T01:42:21.301Z,63.60
2022-11-18T01:45:05.147Z,63.60
2022-11-18T01:47:39.256Z,63.70
2022-11-18T01:50:09.213Z,63.70
2022-11-18T01:52:40.733Z,63.70
2022-11-18T01:55:16.061Z,63.60
2022-11-18T01:57:46.113Z,63.60
2022-11-18T02:00:15.786Z,63.60
2022-11-18T02:02:44.360Z,63.60
2022-11-18T02:05:13.717Z,63.50
2022-11-18T02:07:44.855Z,63.60
2022-11-18T02:10:21.836Z,63.60
2022-11-18T02:12:51.522Z,63.60
2022-11-18T02:15:28.273Z,63.60
2022-11-18T02:18:05.497Z,63.60
2022-11-18T02:20:37.549Z,63.60
2022-11-18T02:24:05.470Z,63.70
2022-11-18T02:27:30.922Z,63.70
2022-11-18T02:30:08.296Z,63.60
2022-11-18T02:32:43.538Z,63.60
2022-11-18T02:35:19.878Z,63.60
2022-11-18T02:37:56.062Z,63.60
2022-11-18T02:40:29.893Z,63.60
2022-11-18T02:43:03.585Z,63.60
2022-11-18T02:45:34.906Z,63.60
2022-11-18T02:48:09.148Z,63.60
2022-11-18T02:50:39.046Z,63.60
2022-11-18T02:53:10.100Z,63.60
2022-11-18T02:55:41.659Z,63.60
2022-11-18T02:58:11.011Z,63.60
2022-11-18T03:00:40.944Z,63.70
2022-11-18T03:03:31.368Z,63.60
2022-11-18T03:06:09.287Z,63.70
2022-11-18T03:08:45.898Z,63.60
2022-11-18T03:11:19.769Z,63.60
2022-11-18T03:14:08.426Z,63.60
2022-11-18T03:16:41.799Z,63.70
2022-11-18T03:19:20.265Z,63.70
2022-11-18T03:21:58.270Z,63.80
2022-11-18T03:24:33.154Z,63.70
2022-11-18T03:27:12.017Z,63.80
2022-11-18T03:29:45.930Z,63.70
2022-11-18T03:32:21.140Z,63.70
2022-11-18T03:34:53.873Z,63.70
2022-11-18T03:37:24.695Z,63.60
2022-11-18T03:39:58.140Z,63.70
2022-11-18T03:42:30.927Z,63.60
2022-11-18T03:45:04.754Z,63.60
2022-11-18T03:47:40.987Z,63.60
2022-11-18T03:50:15.276Z,63.60
2022-11-18T03:52:45.125Z,63.70
2022-11-18T03:55:19.283Z,63.70
2022-11-18T03:57:54.917Z,63.70
2022-11-18T04:00:23.869Z,63.70
2022-11-18T04:02:54.111Z,63.70
2022-11-18T04:05:23.014Z,63.60
2022-11-18T04:08:00.591Z,63.70
2022-11-18T04:10:34.687Z,63.70
2022-11-18T04:13:08.048Z,63.70
2022-11-18T04:15:40.213Z,63.70
2022-11-18T04:18:11.158Z,63.70
2022-11-18T04:20:40.355Z,63.70
2022-11-18T04:23:09.965Z,63.70
2022-11-18T04:25:38.718Z,63.70
2022-11-18T04:28:07.406Z,63.70
2022-11-18T04:30:36.181Z,63.70
2022-11-18T04:33:05.277Z,63.70
2022-11-18T04:35:35.288Z,63.70
2022-11-18T04:38:05.036Z,63.60
2022-11-18T04:40:33.900Z,63.60
2022-11-18T04:43:02.478Z,63.60
2022-11-18T04:45:30.956Z,63.60
2022-11-18T04:48:03.477Z,63.60
2022-11-18T04:50:33.888Z,63.60
2022-11-18T04:53:02.535Z,63.60
2022-11-18T04:55:31.066Z,63.60
2022-11-18T04:57:59.604Z,63.60
2022-11-18T05:00:28.184Z,63.60
2022-11-18T05:02:56.743Z,63.70
2022-11-18T05:05:25.295Z,63.70
2022-11-18T05:07:55.315Z,63.70
2022-11-18T05:10:23.845Z,63.70
2022-11-18T05:12:52.486Z,63.70
2022-11-18T05:15:24.032Z,63.70
2022-11-18T05:17:52.705Z,63.80
2022-11-18T05:20:21.605Z,63.70
2022-11-18T05:22:50.182Z,63.70
2022-11-18T05:25:20.137Z,63.70
2022-11-18T05:27:48.747Z,63.80
2022-11-18T05:30:17.622Z,63.70
2022-11-18T05:32:46.165Z,63.80
2022-11-18T05:35:38.034Z,63.70
2022-11-18T05:38:06.583Z,63.70
2022-11-18T05:40:36.499Z,63.60
2022-11-18T05:43:12.928Z,63.70
2022-11-18T05:45:42.005Z,63.70
2022-11-18T05:48:10.995Z,63.70
2022-11-18T05:50:40.209Z,63.70
2022-11-18T05:53:08.852Z,63.70
2022-11-18T05:55:45.875Z,63.70
2022-11-18T05:58:14.503Z,63.80
2022-11-18T06:00:43.460Z,63.70
2022-11-18T06:03:19.285Z,63.80
2022-11-18T06:05:48.428Z,63.80
2022-11-18T06:08:19.953Z,63.80
2022-11-18T06:10:51.696Z,63.80
2022-11-18T06:13:24.906Z,63.80
2022-11-18T06:15:53.983Z,63.80
2022-11-18T06:18:25.659Z,63.70
2022-11-18T06:20:57.870Z,63.70
2022-11-18T06:23:26.783Z,63.70
2022-11-18T06:25:57.159Z,63.70
2022-11-18T06:28:26.093Z,63.80
2022-11-18T06:30:54.682Z,63.80
2022-11-18T06:33:23.261Z,63.80
2022-11-18T06:35:51.833Z,63.90
2022-11-18T06:38:40.779Z,63.90
2022-11-18T06:41:10.697Z,63.90
2022-11-18T06:43:38.837Z,63.90
2022-11-18T06:46:27.395Z,63.90
2022-11-18T06:48:56.083Z,64.00
2022-11-18T06:51:25.242Z,64.00
2022-11-18T06:53:54.474Z,63.90
2022-11-18T06:56:25.728Z,64.00
2022-11-18T06:58:56.224Z,64.10
2022-11-18T07:01:27.372Z,64.10
2022-11-18T07:03:56.471Z,64.10
2022-11-18T07:06:27.555Z,64.10
2022-11-18T07:08:56.624Z,64.10
2022-11-18T07:11:27.928Z,64.40
2022-11-18T07:13:56.650Z,64.10
2022-11-18T07:16:27.530Z,64.10
2022-11-18T07:18:57.256Z,64.10
2022-11-18T07:21:28.542Z,64.20
2022-11-18T07:23:58.330Z,64.90
2022-11-18T07:26:28.324Z,64.20
2022-11-18T07:28:56.911Z,64.10
2022-11-18T07:31:25.502Z,64.10
2022-11-18T07:33:54.824Z,64.10
2022-11-18T07:36:29.652Z,64.20
2022-11-18T07:39:02.493Z,64.30
2022-11-18T07:41:32.681Z,64.20
2022-11-18T07:44:03.476Z,64.30
2022-11-18T07:46:34.085Z,65.10
2022-11-18T07:49:05.732Z,64.40
2022-11-18T07:51:36.707Z,64.40
2022-11-18T07:54:09.137Z,64.30
2022-11-18T07:56:39.308Z,64.40
2022-11-18T07:59:08.349Z,64.30
2022-11-18T08:01:37.307Z,64.30
2022-11-18T08:04:08.599Z,64.30
2022-11-18T08:06:38.126Z,64.30
2022-11-18T08:09:08.224Z,64.30
2022-11-18T08:11:38.856Z,64.30
2022-11-18T08:14:07.517Z,64.30
2022-11-18T08:16:36.034Z,64.20
2022-11-18T08:19:04.850Z,64.30
2022-11-18T08:21:33.411Z,64.30
2022-11-18T08:24:01.955Z,64.30
2022-11-18T08:26:30.709Z,64.30
2022-11-18T08:29:00.670Z,64.30
2022-11-18T08:31:31.606Z,64.30
2022-11-18T08:34:02.829Z,64.20
2022-11-18T08:36:34.366Z,64.20
2022-11-18T08:39:06.662Z,64.30
2022-11-18T08:41:37.526Z,64.30
2022-11-18T08:44:09.516Z,64.40
2022-11-18T08:46:38.072Z,64.40
2022-11-18T08:49:06.684Z,64.50
2022-11-18T08:51:35.259Z,64.50
2022-11-18T08:54:03.851Z,64.50
2022-11-18T08:56:32.754Z,64.50
2022-11-18T08:59:01.411Z,64.50
2022-11-18T09:01:31.382Z,64.50
2022-11-18T09:04:00.006Z,64.50
2022-11-18T09:06:28.596Z,64.40
2022-11-18T09:09:00.737Z,64.50
2022-11-18T09:11:33.561Z,64.50
2022-11-18T09:16:52.747Z,64.50
2022-11-18T09:22:10.643Z,64.40
2022-11-18T09:24:40.923Z,64.30
2022-11-18T09:27:15.196Z,64.20
2022-11-18T09:29:45.727Z,64.30
2022-11-18T09:32:15.815Z,64.30
2022-11-18T09:34:44.415Z,64.30
2022-11-18T09:37:13.256Z,64.40
2022-11-18T09:39:41.878Z,64.30
2022-11-18T09:42:40.371Z,64.20
2022-11-18T09:45:23.885Z,64.30
2022-11-18T09:47:59.754Z,64.00
2022-11-18T09:53:24.478Z,63.70
2022-11-18T09:55:55.088Z,63.70
2022-11-18T09:58:32.975Z,63.80
2022-11-18T10:01:02.557Z,63.90
2022-11-18T10:03:34.161Z,63.90
2022-11-18T10:06:12.321Z,64.00
2022-11-18T10:08:48.359Z,64.00
2022-11-18T10:11:21.076Z,63.90
2022-11-18T10:14:02.462Z,63.80
2022-11-18T10:16:45.073Z,63.80
2022-11-18T10:19:27.200Z,63.80
2022-11-18T10:22:15.801Z,63.90
2022-11-18T10:24:52.784Z,64.00
2022-11-18T10:27:22.005Z,64.10
2022-11-18T10:29:55.596Z,64.00
2022-11-18T10:32:24.414Z,64.00
2022-11-18T10:34:56.413Z,64.00
2022-11-18T10:37:52.483Z,64.00
2022-11-18T10:40:27.250Z,64.00
2022-11-18T10:42:56.358Z,63.70
2022-11-18T10:45:29.915Z,63.40
2022-11-18T10:48:02.440Z,63.20
2022-11-18T10:50:35.628Z,63.10
2022-11-18T10:53:05.224Z,63.00
2022-11-18T10:55:33.979Z,63.10
2022-11-18T10:58:09.661Z,63.20
2022-11-18T11:00:45.681Z,63.30
2022-11-18T11:03:36.726Z,63.50
2022-11-18T11:06:31.920Z,64.40
2022-11-18T11:09:05.288Z,63.50
2022-11-18T11:11:36.235Z,63.40
2022-11-18T11:14:22.866Z,63.30
2022-11-18T11:17:00.542Z,63.40
2022-11-18T11:19:39.395Z,63.40
2022-11-18T11:22:13.163Z,63.40
2022-11-18T11:24:42.382Z,63.40
2022-11-18T11:30:40.865Z,63.50
2022-11-18T11:33:31.041Z,63.50
2022-11-18T11:36:34.105Z,63.50
2022-11-18T11:39:36.119Z,63.60
2022-11-18T11:42:19.139Z,63.70
2022-11-18T11:45:03.867Z,63.80
2022-11-18T11:47:47.988Z,63.80
2022-11-18T11:50:25.600Z,63.90
2022-11-18T11:53:16.686Z,63.90
2022-11-18T11:56:03.119Z,63.90
2022-11-18T11:58:59.759Z,63.80
2022-11-18T12:01:37.427Z,63.60
2022-11-18T12:04:25.259Z,63.60
2022-11-18T12:06:56.476Z,63.60
2022-11-18T12:09:39.898Z,63.70
2022-11-18T12:12:35.925Z,63.80
2022-11-18T12:15:27.683Z,63.90
2022-11-18T12:18:06.629Z,64.00
2022-11-18T12:20:45.303Z,64.10
2022-11-18T12:23:17.779Z,64.10
2022-11-18T12:26:03.502Z,64.10
2022-11-18T12:28:37.455Z,64.00
2022-11-18T12:31:35.851Z,64.10
2022-11-18T12:34:29.095Z,64.00
2022-11-18T12:36:58.159Z,63.90
2022-11-18T12:39:50.485Z,63.90
2022-11-18T12:42:56.963Z,63.80
2022-11-18T12:45:58.546Z,63.70
2022-11-18T12:48:47.900Z,63.60
2022-11-18T12:51:50.201Z,63.50
2022-11-18T12:54:31.536Z,63.50
2022-11-18T12:57:04.424Z,63.70
2022-11-18T12:59:39.089Z,63.70
2022-11-18T13:02:22.605Z,63.70
2022-11-18T13:05:09.902Z,63.80
2022-11-18T13:08:02.855Z,63.80
2022-11-18T13:10:35.081Z,63.80
2022-11-18T13:13:04.187Z,63.80
2022-11-18T13:15:50.320Z,63.90
2022-11-18T13:18:21.845Z,63.70
2022-11-18T13:20:58.851Z,63.70
2022-11-18T13:23:50.272Z,63.60
2022-11-18T13:26:25.223Z,63.60
2022-11-18T13:29:37.633Z,63.70
2022-11-18T13:32:21.785Z,63.70
2022-11-18T13:34:53.554Z,63.60
2022-11-18T13:37:24.866Z,63.60
2022-11-18T13:39:53.963Z,63.50
2022-11-18T13:42:25.417Z,63.50
2022-11-18T13:44:56.557Z,63.50
2022-11-18T13:47:37.041Z,63.50
2022-11-18T13:50:34.778Z,63.40
2022-11-18T13:53:25.190Z,64.10
2022-11-18T13:55:57.165Z,63.30
2022-11-18T13:59:02.846Z,63.20
2022-11-18T14:01:30.239Z,63.20
2022-11-18T14:04:03.122Z,63.20
2022-11-18T14:06:35.459Z,63.20
2022-11-18T14:09:22.573Z,63.30
2022-11-18T14:12:03.673Z,63.10
2022-11-18T14:14:35.093Z,63.00
2022-11-18T14:17:18.703Z,63.10
2022-11-18T14:19:48.114Z,63.80
2022-11-18T14:22:21.178Z,63.10
2022-11-18T14:24:58.033Z,63.00
2022-11-18T14:27:40.279Z,63.00
2022-11-18T14:30:42.905Z,63.00
2022-11-18T14:33:17.266Z,62.90
2022-11-18T14:35:50.489Z,63.00
2022-11-18T14:38:38.883Z,62.90
2022-11-18T14:41:14.768Z,63.00
2022-11-18T14:43:46.104Z,62.90
2022-11-18T14:46:18.489Z,62.90
2022-11-18T14:48:47.587Z,62.90
2022-11-18T14:51:17.474Z,62.90
2022-11-18T14:53:47.349Z,62.90
2022-11-18T14:56:28.995Z,62.90
2022-11-18T14:58:57.992Z,63.00
2022-11-18T15:01:30.527Z,63.20
2022-11-18T15:03:59.783Z,63.20
2022-11-18T15:06:28.626Z,63.20
2022-11-18T15:08:58.580Z,63.10
2022-11-18T15:11:27.368Z,63.00
2022-11-18T15:13:56.006Z,62.80
2022-11-18T15:16:28.563Z,62.70
2022-11-18T15:19:00.482Z,62.70
2022-11-18T15:21:29.945Z,62.70
2022-11-18T15:24:00.379Z,62.50
2022-11-18T15:26:33.598Z,62.50
2022-11-18T15:29:02.564Z,62.50
2022-11-18T15:31:31.132Z,62.50
2022-11-18T15:34:05.055Z,62.40
2022-11-18T15:36:35.526Z,62.40
2022-11-18T15:39:05.574Z,62.40
2022-11-18T15:41:34.861Z,62.40
2022-11-18T15:44:03.745Z,62.50
2022-11-18T15:46:33.747Z,62.50
2022-11-18T15:49:02.685Z,62.40
2022-11-18T15:51:33.377Z,62.40
2022-11-18T15:54:01.941Z,62.50
2022-11-18T15:56:32.947Z,62.40
2022-11-18T15:59:03.435Z,62.60
2022-11-18T16:01:34.219Z,62.70
2022-11-18T16:04:03.430Z,62.60
2022-11-18T16:06:32.289Z,62.50
2022-11-18T16:09:01.172Z,62.40
2022-11-18T16:11:48.547Z,62.40
2022-11-18T16:14:20.066Z,62.30
2022-11-18T16:16:51.057Z,62.20
2022-11-18T16:19:22.160Z,62.20
2022-11-18T16:21:53.873Z,62.00
2022-11-18T16:24:26.163Z,61.80
2022-11-18T16:26:56.196Z,61.80
2022-11-18T16:29:25.572Z,61.70
2022-11-18T16:31:54.936Z,61.80
2022-11-18T16:34:25.883Z,61.70
2022-11-18T16:36:56.719Z,61.80
2022-11-18T16:39:27.520Z,61.80
2022-11-18T16:42:06.738Z,61.80
2022-11-18T16:44:37.064Z,62.00
2022-11-18T16:47:12.280Z,62.00
2022-11-18T16:49:41.277Z,62.00
2022-11-18T16:52:10.251Z,62.00
2022-11-18T16:54:44.701Z,62.20
2022-11-18T16:57:15.599Z,62.30
2022-11-18T16:59:44.235Z,62.30
2022-11-18T17:02:14.799Z,62.20
2022-11-18T17:04:43.967Z,62.30
2022-11-18T17:07:12.882Z,62.30
2022-11-18T17:09:41.605Z,62.40
2022-11-18T17:12:10.315Z,62.10
2022-11-18T17:14:40.408Z,61.90
2022-11-18T17:17:12.791Z,61.50
2022-11-18T17:19:41.688Z,61.40
2022-11-18T17:22:10.230Z,61.50
2022-11-18T17:24:38.858Z,61.60
2022-11-18T17:27:07.450Z,61.60
2022-11-18T17:29:36.028Z,61.70
2022-11-18T17:32:06.672Z,61.90
2022-11-18T17:34:35.219Z,62.10
2022-11-18T17:37:07.053Z,62.10
2022-11-18T17:39:36.209Z,62.00
2022-11-18T17:42:18.920Z,62.10
2022-11-18T17:44:47.582Z,62.30
2022-11-18T17:47:17.574Z,62.30
2022-11-18T17:49:46.202Z,62.40
2022-11-18T17:52:14.759Z,62.50
2022-11-18T17:54:43.316Z,62.40
2022-11-18T17:57:11.900Z,62.50
2022-11-18T17:59:40.539Z,62.50
2022-11-18T18:02:10.895Z,62.50
2022-11-18T18:04:40.895Z,62.40
2022-11-18T18:07:09.488Z,62.20
2022-11-18T18:09:38.096Z,62.00
2022-11-18T18:12:27.606Z,61.90
2022-11-18T18:14:55.187Z,61.80
2022-11-18T18:17:23.728Z,62.00
2022-11-18T18:19:53.634Z,61.90
2022-11-18T18:22:22.303Z,62.00
2022-11-18T18:24:50.874Z,62.00
2022-11-18T18:27:19.389Z,62.00
2022-11-18T18:29:48.009Z,62.00
2022-11-18T18:32:16.529Z,61.70
2022-11-18T18:34:45.098Z,61.80
2022-11-18T18:37:15.138Z,62.00
2022-11-18T18:39:43.696Z,62.10
2022-11-18T18:42:12.237Z,62.20
2022-11-18T18:44:58.411Z,62.40
2022-11-18T18:47:26.959Z,62.30
2022-11-18T18:49:55.584Z,62.30
2022-11-18T18:52:25.533Z,62.30
2022-11-18T18:54:54.170Z,62.30
2022-11-18T18:57:43.046Z,62.20
2022-11-18T19:00:13.556Z,62.20
2022-11-18T19:02:42.135Z,62.10
2022-11-18T19:05:10.981Z,62.20
2022-11-18T19:07:43.456Z,62.30
2022-11-18T19:10:12.153Z,62.30
2022-11-18T19:12:51.916Z,62.30
2022-11-18T19:15:23.095Z,62.40
2022-11-18T19:17:51.955Z,62.50
2022-11-18T19:20:36.759Z,62.50
2022-11-18T19:26:01.602Z,62.50
2022-11-18T19:28:30.486Z,62.40
2022-11-18T19:31:00.954Z,62.40
2022-11-18T19:33:29.565Z,62.30
2022-11-18T19:35:58.088Z,62.20
2022-11-18T19:38:28.030Z,62.00
2022-11-18T19:41:00.181Z,62.00
2022-11-18T19:43:28.843Z,62.00
2022-11-18T19:45:57.797Z,61.90
2022-11-18T19:48:27.270Z,62.00
2022-11-18T19:51:07.947Z,61.90
2022-11-18T19:53:39.947Z,61.90
2022-11-18T19:56:11.230Z,61.90
2022-11-18T19:58:41.980Z,61.70
2022-11-18T20:01:13.911Z,61.70
2022-11-18T20:03:43.163Z,61.70
2022-11-18T20:06:12.668Z,61.70
2022-11-18T20:08:43.011Z,61.80
2022-11-18T20:11:13.876Z,61.80
2022-11-18T20:13:44.344Z,62.00
2022-11-18T20:16:16.042Z,62.00
2022-11-18T20:18:45.154Z,62.00
2022-11-18T20:21:19.775Z,62.10
2022-11-18T20:23:51.884Z,62.00
2022-11-18T20:26:22.635Z,62.20
2022-11-18T20:28:57.222Z,62.00
2022-11-18T20:31:27.431Z,61.90
2022-11-18T20:33:57.963Z,61.90
2022-11-18T20:36:29.280Z,61.70
2022-11-18T20:39:01.554Z,61.70
2022-11-18T20:41:30.662Z,61.80
2022-11-18T20:43:59.312Z,61.90
2022-11-18T20:46:28.216Z,61.90
2022-11-18T20:48:57.575Z,61.80
2022-11-18T20:51:28.285Z,61.90
2022-11-18T20:54:00.108Z,62.00
2022-11-18T20:56:29.327Z,62.00
2022-11-18T20:58:58.530Z,62.10
2022-11-18T21:01:29.626Z,61.90
2022-11-18T21:04:00.481Z,62.00
2022-11-18T21:06:32.014Z,61.90
2022-11-18T21:09:04.961Z,61.80
2022-11-18T21:11:36.293Z,61.70
2022-11-18T21:14:24.845Z,61.50
2022-11-18T21:16:55.385Z,61.50
2022-11-18T21:19:26.176Z,61.50
2022-11-18T21:21:54.739Z,61.50
2022-11-18T21:24:28.839Z,61.50
2022-11-18T21:26:58.758Z,61.70
2022-11-18T21:29:29.598Z,61.90
2022-11-18T21:32:00.651Z,62.00
2022-11-18T21:34:29.618Z,62.00
2022-11-18T21:36:58.293Z,62.00
2022-11-18T21:39:28.241Z,62.30
2022-11-18T21:41:57.685Z,62.20
2022-11-18T21:44:27.937Z,62.00
2022-11-18T21:46:57.271Z,61.90
2022-11-18T21:49:25.839Z,62.00
2022-11-18T21:51:54.409Z,61.80
2022-11-18T21:54:22.937Z,61.80
2022-11-18T21:56:53.777Z,61.40
2022-11-18T21:59:23.734Z,61.40
2022-11-18T22:01:52.289Z,61.50
2022-11-18T22:04:34.658Z,61.60
2022-11-18T22:07:03.342Z,61.30
2022-11-18T22:09:36.416Z,61.40
2022-11-18T22:12:08.423Z,61.40
2022-11-18T22:14:37.129Z,61.40
2022-11-18T22:17:06.327Z,61.40
2022-11-18T22:19:35.041Z,61.40
2022-11-18T22:22:03.664Z,61.50
2022-11-18T22:24:32.224Z,61.50
2022-11-18T22:27:00.780Z,61.30
2022-11-18T22:29:30.674Z,61.30
2022-11-18T22:31:59.566Z,61.20
2022-11-18T22:34:29.379Z,61.10
2022-11-18T22:36:57.898Z,61.10
2022-11-18T22:39:26.511Z,61.20
2022-11-18T22:42:12.265Z,61.20
2022-11-18T22:44:42.220Z,61.20
2022-11-18T22:47:10.719Z,61.20
2022-11-18T22:49:39.222Z,61.40
2022-11-18T22:52:07.841Z,61.10
2022-11-18T22:54:39.361Z,61.00
2022-11-18T22:57:34.225Z,61.00
2022-11-18T23:00:05.620Z,61.20
2022-11-18T23:02:38.660Z,61.30
2022-11-18T23:05:10.675Z,61.30
2022-11-18T23:07:39.382Z,61.40
2022-11-18T23:10:08.656Z,61.50
2022-11-18T23:12:54.697Z,61.60
2022-11-18T23:15:24.650Z,61.70
2022-11-18T23:17:53.216Z,61.60
2022-11-18T23:20:21.781Z,61.60
2022-11-18T23:22:50.390Z,61.50
2022-11-18T23:25:18.916Z,61.50
2022-11-18T23:27:51.597Z,61.30
2022-11-18T23:30:44.174Z,61.30
2022-11-18T23:33:12.790Z,61.30
2022-11-18T23:35:41.367Z,61.20
2022-11-18T23:38:09.919Z,61.10
2022-11-18T23:40:38.438Z,61.00
2022-11-18T23:43:07.089Z,61.20
2022-11-18T23:45:35.656Z,61.20
2022-11-18T23:48:05.761Z,61.30
2022-11-18T23:50:39.102Z,61.30
2022-11-18T23:53:08.009Z,61.30
2022-11-18T23:55:37.452Z,61.20
2022-11-18T23:58:06.232Z,61.10
